sensor_id;sensor_type;location;lat;lon;timestamp;temperature;humidity
30648;DHT22;17683;53.360;9.736;2022-12-07T00:01:37;3.30;99.90
30648;DHT22;17683;53.360;9.736;2022-12-07T00:04:05;3.40;99.90
30648;DHT22;17683;53.360;9.736;2022-12-07T00:06:33;3.40;99.90
30648;DHT22;17683;53.360;9.736;2022-12-07T00:09:00;3.40;99.90
30648;DHT22;17683;53.360;9.736;2022-12-07T00:11:25;3.40;99.90
30648;DHT22;17683;53.360;9.736;2022-12-07T00:13:53;3.40;99.90
30648;DHT22;17683;53.360;9.736;2022-12-07T00:16:21;3.40;99.90
30648;DHT22;17683;53.360;9.736;2022-12-07T00:18:47;3.40;99.90
30648;DHT22;17683;53.360;9.736;2022-12-07T00:21:21;3.40;99.90
30648;DHT22;17683;53.360;9.736;2022-12-07T00:23:50;3.40;99.90
30648;DHT22;17683;53.360;9.736;2022-12-07T00:26:19;3.40;99.90
30648;DHT22;17683;53.360;9.736;2022-12-07T00:28:52;3.40;99.90
30648;DHT22;17683;53.360;9.736;2022-12-07T00:31:20;3.40;99.90
30648;DHT22;17683;53.360;9.736;2022-12-07T00:33:46;3.40;99.90
30648;DHT22;17683;53.360;9.736;2022-12-07T00:36:15;3.40;99.90
30648;DHT22;17683;53.360;9.736;2022-12-07T00:38:41;3.40;99.90
30648;DHT22;17683;53.360;9.736;2022-12-07T00:41:13;3.40;99.90
30648;DHT22;17683;53.360;9.736;2022-12-07T00:43:40;3.40;99.90
30648;DHT22;17683;53.360;9.736;2022-12-07T00:46:06;3.40;99.90
30648;DHT22;17683;53.360;9.736;2022-12-07T00:48:32;3.40;99.90
30648;DHT22;17683;53.360;9.736;2022-12-07T00:50:58;3.50;99.90
30648;DHT22;17683;53.360;9.736;2022-12-07T00:53:24;3.50;99.90
30648;DHT22;17683;53.360;9.736;2022-12-07T00:55:50;3.50;99.90
30648;DHT22;17683;53.360;9.736;2022-12-07T00:58:16;3.50;99.90
30648;DHT22;17683;53.360;9.736;2022-12-07T01:00:42;3.60;99.90
30648;DHT22;17683;53.360;9.736;2022-12-07T01:03:10;3.60;99.90
30648;DHT22;17683;53.360;9.736;2022-12-07T01:05:36;3.60;99.90
30648;DHT22;17683;53.360;9.736;2022-12-07T01:08:03;3.60;99.90
30648;DHT22;17683;53.360;9.736;2022-12-07T01:10:29;3.60;99.90
30648;DHT22;17683;53.360;9.736;2022-12-07T01:12:56;3.70;99.90
30648;DHT22;17683;53.360;9.736;2022-12-07T01:15:22;3.70;99.90
30648;DHT22;17683;53.360;9.736;2022-12-07T01:17:47;3.70;99.90
30648;DHT22;17683;53.360;9.736;2022-12-07T01:20:13;3.70;99.90
30648;DHT22;17683;53.360;9.736;2022-12-07T01:22:41;3.80;99.90
30648;DHT22;17683;53.360;9.736;2022-12-07T01:25:08;3.80;99.90
30648;DHT22;17683;53.360;9.736;2022-12-07T01:27:35;3.80;99.90
30648;DHT22;17683;53.360;9.736;2022-12-07T01:30:02;3.80;99.90
30648;DHT22;17683;53.360;9.736;2022-12-07T01:32:29;3.80;99.90
30648;DHT22;17683;53.360;9.736;2022-12-07T01:34:54;3.90;99.90
30648;DHT22;17683;53.360;9.736;2022-12-07T01:37:20;3.90;99.90
30648;DHT22;17683;53.360;9.736;2022-12-07T01:39:49;3.90;99.90
30648;DHT22;17683;53.360;9.736;2022-12-07T01:42:15;3.90;99.90
30648;DHT22;17683;53.360;9.736;2022-12-07T01:48:01;3.90;99.90
30648;DHT22;17683;53.360;9.736;2022-12-07T01:50:28;3.80;99.90
30648;DHT22;17683;53.360;9.736;2022-12-07T01:53:00;3.80;99.90
30648;DHT22;17683;53.360;9.736;2022-12-07T01:55:28;3.80;99.90
30648;DHT22;17683;53.360;9.736;2022-12-07T01:57:55;3.80;99.90
30648;DHT22;17683;53.360;9.736;2022-12-07T02:00:22;3.80;99.90
30648;DHT22;17683;53.360;9.736;2022-12-07T02:03:14;3.80;99.90
30648;DHT22;17683;53.360;9.736;2022-12-07T02:05:42;3.70;99.90
30648;DHT22;17683;53.360;9.736;2022-12-07T02:08:09;3.70;99.90
30648;DHT22;17683;53.360;9.736;2022-12-07T02:10:35;3.70;99.90
30648;DHT22;17683;53.360;9.736;2022-12-07T02:18:58;3.60;99.90
30648;DHT22;17683;53.360;9.736;2022-12-07T02:22:01;3.50;99.90
30648;DHT22;17683;53.360;9.736;2022-12-07T02:27:14;3.40;99.90
30648;DHT22;17683;53.360;9.736;2022-12-07T02:29:55;3.30;99.90
30648;DHT22;17683;53.360;9.736;2022-12-07T02:40:34;3.10;99.90
30648;DHT22;17683;53.360;9.736;2022-12-07T02:45:42;3.10;99.90
30648;DHT22;17683;53.360;9.736;2022-12-07T02:48:10;3.10;99.90
30648;DHT22;17683;53.360;9.736;2022-12-07T02:50:37;3.00;99.90
30648;DHT22;17683;53.360;9.736;2022-12-07T02:53:04;3.00;99.90
30648;DHT22;17683;53.360;9.736;2022-12-07T02:55:36;3.00;99.90
30648;DHT22;17683;53.360;9.736;2022-12-07T03:03:51;2.90;99.90
30648;DHT22;17683;53.360;9.736;2022-12-07T03:06:24;2.90;99.90
30648;DHT22;17683;53.360;9.736;2022-12-07T03:09:20;2.90;99.90
30648;DHT22;17683;53.360;9.736;2022-12-07T03:11:55;2.80;99.90
30648;DHT22;17683;53.360;9.736;2022-12-07T03:14:31;2.80;99.90
30648;DHT22;17683;53.360;9.736;2022-12-07T03:17:07;2.70;99.90
30648;DHT22;17683;53.360;9.736;2022-12-07T03:19:36;2.70;99.90
30648;DHT22;17683;53.360;9.736;2022-12-07T03:22:07;2.60;99.90
30648;DHT22;17683;53.360;9.736;2022-12-07T03:24:39;2.60;99.90
30648;DHT22;17683;53.360;9.736;2022-12-07T03:27:20;2.60;99.90
30648;DHT22;17683;53.360;9.736;2022-12-07T03:29:51;2.60;99.90
30648;DHT22;17683;53.360;9.736;2022-12-07T03:32:32;2.50;99.90
30648;DHT22;17683;53.360;9.736;2022-12-07T03:35:43;2.50;99.90
30648;DHT22;17683;53.360;9.736;2022-12-07T03:40:54;2.40;99.90
30648;DHT22;17683;53.360;9.736;2022-12-07T03:43:21;2.40;99.90
30648;DHT22;17683;53.360;9.736;2022-12-07T03:51:28;2.30;99.90
30648;DHT22;17683;53.360;9.736;2022-12-07T03:54:07;2.30;99.90
30648;DHT22;17683;53.360;9.736;2022-12-07T03:56:35;2.30;99.90
30648;DHT22;17683;53.360;9.736;2022-12-07T03:59:01;2.30;99.90
30648;DHT22;17683;53.360;9.736;2022-12-07T04:01:27;2.20;99.90
30648;DHT22;17683;53.360;9.736;2022-12-07T04:03:53;2.20;99.90
30648;DHT22;17683;53.360;9.736;2022-12-07T04:06:19;2.20;99.90
30648;DHT22;17683;53.360;9.736;2022-12-07T04:08:44;2.10;99.90
30648;DHT22;17683;53.360;9.736;2022-12-07T04:11:10;2.10;99.90
30648;DHT22;17683;53.360;9.736;2022-12-07T04:13:36;2.10;99.90
30648;DHT22;17683;53.360;9.736;2022-12-07T04:16:21;2.10;99.90
30648;DHT22;17683;53.360;9.736;2022-12-07T04:18:47;2.10;99.90
30648;DHT22;17683;53.360;9.736;2022-12-07T04:21:13;2.00;99.90
30648;DHT22;17683;53.360;9.736;2022-12-07T04:23:38;2.00;99.90
30648;DHT22;17683;53.360;9.736;2022-12-07T04:26:04;2.00;99.90
30648;DHT22;17683;53.360;9.736;2022-12-07T04:28:30;2.10;99.90
30648;DHT22;17683;53.360;9.736;2022-12-07T04:30:56;2.10;99.90
30648;DHT22;17683;53.360;9.736;2022-12-07T04:33:21;2.10;99.90
30648;DHT22;17683;53.360;9.736;2022-12-07T04:35:47;2.10;99.90
30648;DHT22;17683;53.360;9.736;2022-12-07T04:38:12;2.10;99.90
30648;DHT22;17683;53.360;9.736;2022-12-07T04:40:38;2.10;99.90
30648;DHT22;17683;53.360;9.736;2022-12-07T04:43:04;2.10;99.90
30648;DHT22;17683;53.360;9.736;2022-12-07T04:45:30;2.20;99.90
30648;DHT22;17683;53.360;9.736;2022-12-07T04:47:55;2.20;99.90
30648;DHT22;17683;53.360;9.736;2022-12-07T04:50:21;2.20;99.90
30648;DHT22;17683;53.360;9.736;2022-12-07T04:52:47;2.10;99.90
30648;DHT22;17683;53.360;9.736;2022-12-07T04:55:12;2.20;99.90
30648;DHT22;17683;53.360;9.736;2022-12-07T04:57:38;2.10;99.90
30648;DHT22;17683;53.360;9.736;2022-12-07T05:00:05;2.10;99.90
30648;DHT22;17683;53.360;9.736;2022-12-07T05:02:30;2.10;99.90
30648;DHT22;17683;53.360;9.736;2022-12-07T05:04:56;2.20;99.90
30648;DHT22;17683;53.360;9.736;2022-12-07T05:07:22;2.20;99.90
30648;DHT22;17683;53.360;9.736;2022-12-07T05:09:47;2.10;99.90
30648;DHT22;17683;53.360;9.736;2022-12-07T05:12:13;2.10;99.90
30648;DHT22;17683;53.360;9.736;2022-12-07T05:14:39;2.10;99.90
30648;DHT22;17683;53.360;9.736;2022-12-07T05:17:04;2.10;99.90
30648;DHT22;17683;53.360;9.736;2022-12-07T05:19:30;2.00;99.90
30648;DHT22;17683;53.360;9.736;2022-12-07T05:21:56;2.00;99.90
30648;DHT22;17683;53.360;9.736;2022-12-07T05:24:21;2.00;99.90
30648;DHT22;17683;53.360;9.736;2022-12-07T05:26:47;2.00;99.90
30648;DHT22;17683;53.360;9.736;2022-12-07T05:29:15;2.00;99.90
30648;DHT22;17683;53.360;9.736;2022-12-07T05:31:41;2.00;99.90
30648;DHT22;17683;53.360;9.736;2022-12-07T05:34:07;1.90;99.90
30648;DHT22;17683;53.360;9.736;2022-12-07T05:36:33;1.90;99.90
30648;DHT22;17683;53.360;9.736;2022-12-07T05:38:58;1.90;99.90
30648;DHT22;17683;53.360;9.736;2022-12-07T05:41:24;1.90;99.90
30648;DHT22;17683;53.360;9.736;2022-12-07T05:44:09;1.90;99.90
30648;DHT22;17683;53.360;9.736;2022-12-07T05:46:34;1.90;99.90
30648;DHT22;17683;53.360;9.736;2022-12-07T05:49:01;1.80;99.90
30648;DHT22;17683;53.360;9.736;2022-12-07T05:51:26;1.80;99.90
30648;DHT22;17683;53.360;9.736;2022-12-07T05:53:52;1.70;99.90
30648;DHT22;17683;53.360;9.736;2022-12-07T05:56:18;1.70;99.90
30648;DHT22;17683;53.360;9.736;2022-12-07T05:58:43;1.70;99.90
30648;DHT22;17683;53.360;9.736;2022-12-07T06:01:27;1.80;99.90
30648;DHT22;17683;53.360;9.736;2022-12-07T06:03:53;1.70;99.90
30648;DHT22;17683;53.360;9.736;2022-12-07T06:06:19;1.70;99.90
30648;DHT22;17683;53.360;9.736;2022-12-07T06:08:45;1.60;99.90
30648;DHT22;17683;53.360;9.736;2022-12-07T06:11:11;1.70;99.90
30648;DHT22;17683;53.360;9.736;2022-12-07T06:13:55;1.70;99.90
30648;DHT22;17683;53.360;9.736;2022-12-07T06:16:21;1.80;99.90
30648;DHT22;17683;53.360;9.736;2022-12-07T06:18:46;1.80;99.90
30648;DHT22;17683;53.360;9.736;2022-12-07T06:21:12;1.90;99.90
30648;DHT22;17683;53.360;9.736;2022-12-07T06:23:38;1.90;99.90
30648;DHT22;17683;53.360;9.736;2022-12-07T06:26:03;1.90;99.90
30648;DHT22;17683;53.360;9.736;2022-12-07T06:28:29;1.90;99.90
30648;DHT22;17683;53.360;9.736;2022-12-07T06:30:58;2.00;99.90
30648;DHT22;17683;53.360;9.736;2022-12-07T06:33:25;2.00;99.90
30648;DHT22;17683;53.360;9.736;2022-12-07T06:35:51;2.10;99.90
30648;DHT22;17683;53.360;9.736;2022-12-07T06:38:16;2.00;99.90
30648;DHT22;17683;53.360;9.736;2022-12-07T06:40:42;2.00;99.90
30648;DHT22;17683;53.360;9.736;2022-12-07T06:43:08;2.00;99.90
30648;DHT22;17683;53.360;9.736;2022-12-07T06:45:34;2.00;99.90
30648;DHT22;17683;53.360;9.736;2022-12-07T06:47:59;2.00;99.90
30648;DHT22;17683;53.360;9.736;2022-12-07T06:50:25;2.00;99.90
30648;DHT22;17683;53.360;9.736;2022-12-07T06:52:51;2.10;99.90
30648;DHT22;17683;53.360;9.736;2022-12-07T06:55:17;2.10;99.90
30648;DHT22;17683;53.360;9.736;2022-12-07T06:57:43;2.20;99.90
30648;DHT22;17683;53.360;9.736;2022-12-07T07:00:09;2.10;99.90
30648;DHT22;17683;53.360;9.736;2022-12-07T07:02:35;2.10;99.90
30648;DHT22;17683;53.360;9.736;2022-12-07T07:05:01;2.10;99.90
30648;DHT22;17683;53.360;9.736;2022-12-07T07:07:27;2.20;99.90
30648;DHT22;17683;53.360;9.736;2022-12-07T07:09:53;2.20;99.90
30648;DHT22;17683;53.360;9.736;2022-12-07T07:12:19;2.20;99.90
30648;DHT22;17683;53.360;9.736;2022-12-07T07:14:45;2.20;99.90
30648;DHT22;17683;53.360;9.736;2022-12-07T07:17:10;2.20;99.90
30648;DHT22;17683;53.360;9.736;2022-12-07T07:19:36;2.20;99.90
30648;DHT22;17683;53.360;9.736;2022-12-07T07:22:03;2.20;99.90
30648;DHT22;17683;53.360;9.736;2022-12-07T07:24:29;2.20;99.90
30648;DHT22;17683;53.360;9.736;2022-12-07T07:26:55;2.20;99.90
30648;DHT22;17683;53.360;9.736;2022-12-07T07:29:21;2.20;99.90
30648;DHT22;17683;53.360;9.736;2022-12-07T07:31:47;2.20;99.90
30648;DHT22;17683;53.360;9.736;2022-12-07T07:34:13;2.30;99.90
30648;DHT22;17683;53.360;9.736;2022-12-07T07:36:38;2.30;99.90
30648;DHT22;17683;53.360;9.736;2022-12-07T07:39:04;2.30;99.90
30648;DHT22;17683;53.360;9.736;2022-12-07T07:41:31;2.30;99.90
30648;DHT22;17683;53.360;9.736;2022-12-07T07:43:57;2.30;99.90
30648;DHT22;17683;53.360;9.736;2022-12-07T07:46:22;2.30;99.90
30648;DHT22;17683;53.360;9.736;2022-12-07T07:48:48;2.40;99.90
30648;DHT22;17683;53.360;9.736;2022-12-07T07:51:14;2.30;99.90
30648;DHT22;17683;53.360;9.736;2022-12-07T07:53:39;2.40;99.90
30648;DHT22;17683;53.360;9.736;2022-12-07T07:56:05;2.40;99.90
30648;DHT22;17683;53.360;9.736;2022-12-07T07:58:31;2.40;99.90
30648;DHT22;17683;53.360;9.736;2022-12-07T08:00:57;2.40;99.90
30648;DHT22;17683;53.360;9.736;2022-12-07T08:03:28;2.40;99.90
30648;DHT22;17683;53.360;9.736;2022-12-07T08:05:54;2.40;99.90
30648;DHT22;17683;53.360;9.736;2022-12-07T08:08:20;2.50;99.90
30648;DHT22;17683;53.360;9.736;2022-12-07T08:10:45;2.40;99.90
30648;DHT22;17683;53.360;9.736;2022-12-07T08:13:11;2.50;99.90
30648;DHT22;17683;53.360;9.736;2022-12-07T08:15:40;2.50;99.90
30648;DHT22;17683;53.360;9.736;2022-12-07T08:18:06;2.50;99.90
30648;DHT22;17683;53.360;9.736;2022-12-07T08:20:33;2.50;99.90
30648;DHT22;17683;53.360;9.736;2022-12-07T08:22:59;2.50;99.90
30648;DHT22;17683;53.360;9.736;2022-12-07T08:25:25;2.50;99.90
30648;DHT22;17683;53.360;9.736;2022-12-07T08:27:52;2.50;99.90
30648;DHT22;17683;53.360;9.736;2022-12-07T08:30:18;2.50;99.90
30648;DHT22;17683;53.360;9.736;2022-12-07T08:32:45;2.60;99.90
30648;DHT22;17683;53.360;9.736;2022-12-07T08:35:11;2.60;99.90
30648;DHT22;17683;53.360;9.736;2022-12-07T08:37:37;2.60;99.90
30648;DHT22;17683;53.360;9.736;2022-12-07T08:40:04;2.60;99.90
30648;DHT22;17683;53.360;9.736;2022-12-07T08:42:30;2.70;99.90
30648;DHT22;17683;53.360;9.736;2022-12-07T08:45:05;2.70;99.90
30648;DHT22;17683;53.360;9.736;2022-12-07T08:47:31;2.70;99.90
30648;DHT22;17683;53.360;9.736;2022-12-07T08:49:57;2.70;99.90
30648;DHT22;17683;53.360;9.736;2022-12-07T08:52:31;2.80;99.90
30648;DHT22;17683;53.360;9.736;2022-12-07T08:54:59;2.80;99.90
30648;DHT22;17683;53.360;9.736;2022-12-07T08:57:27;2.80;99.90
30648;DHT22;17683;53.360;9.736;2022-12-07T08:59:54;2.90;99.90
30648;DHT22;17683;53.360;9.736;2022-12-07T09:02:19;2.90;99.90
30648;DHT22;17683;53.360;9.736;2022-12-07T09:04:45;2.90;99.90
30648;DHT22;17683;53.360;9.736;2022-12-07T09:07:11;3.00;99.90
30648;DHT22;17683;53.360;9.736;2022-12-07T09:09:37;3.00;99.90
30648;DHT22;17683;53.360;9.736;2022-12-07T09:12:03;3.00;99.90
30648;DHT22;17683;53.360;9.736;2022-12-07T09:14:29;3.10;99.90
30648;DHT22;17683;53.360;9.736;2022-12-07T09:16:55;3.10;99.90
30648;DHT22;17683;53.360;9.736;2022-12-07T09:19:20;3.10;99.90
30648;DHT22;17683;53.360;9.736;2022-12-07T09:21:46;3.20;99.90
30648;DHT22;17683;53.360;9.736;2022-12-07T09:24:13;3.10;99.90
30648;DHT22;17683;53.360;9.736;2022-12-07T09:26:38;3.20;99.90
30648;DHT22;17683;53.360;9.736;2022-12-07T09:29:06;3.20;99.90
30648;DHT22;17683;53.360;9.736;2022-12-07T09:31:31;3.20;99.90
30648;DHT22;17683;53.360;9.736;2022-12-07T09:34:01;3.20;99.90
30648;DHT22;17683;53.360;9.736;2022-12-07T09:36:27;3.20;99.90
30648;DHT22;17683;53.360;9.736;2022-12-07T09:38:53;3.10;99.90
30648;DHT22;17683;53.360;9.736;2022-12-07T09:41:19;3.10;99.90
30648;DHT22;17683;53.360;9.736;2022-12-07T09:43:46;3.10;99.90
30648;DHT22;17683;53.360;9.736;2022-12-07T09:46:15;3.00;99.90
30648;DHT22;17683;53.360;9.736;2022-12-07T09:48:43;3.00;99.90
30648;DHT22;17683;53.360;9.736;2022-12-07T09:51:20;3.00;99.90
30648;DHT22;17683;53.360;9.736;2022-12-07T09:53:47;3.10;99.90
30648;DHT22;17683;53.360;9.736;2022-12-07T09:56:15;3.10;99.90
30648;DHT22;17683;53.360;9.736;2022-12-07T09:58:42;3.10;99.90
30648;DHT22;17683;53.360;9.736;2022-12-07T10:01:14;3.10;99.90
30648;DHT22;17683;53.360;9.736;2022-12-07T10:03:49;3.10;99.90
30648;DHT22;17683;53.360;9.736;2022-12-07T10:06:15;3.10;99.90
30648;DHT22;17683;53.360;9.736;2022-12-07T10:08:41;3.20;99.90
30648;DHT22;17683;53.360;9.736;2022-12-07T10:11:09;3.20;99.90
30648;DHT22;17683;53.360;9.736;2022-12-07T10:13:37;3.20;99.90
30648;DHT22;17683;53.360;9.736;2022-12-07T10:16:03;3.20;99.90
30648;DHT22;17683;53.360;9.736;2022-12-07T10:18:42;3.30;99.90
30648;DHT22;17683;53.360;9.736;2022-12-07T10:23:35;3.40;99.90
30648;DHT22;17683;53.360;9.736;2022-12-07T10:31:44;3.50;99.90
30648;DHT22;17683;53.360;9.736;2022-12-07T10:34:31;3.60;99.90
30648;DHT22;17683;53.360;9.736;2022-12-07T10:39:52;3.70;99.90
30648;DHT22;17683;53.360;9.736;2022-12-07T10:42:23;3.70;99.90
30648;DHT22;17683;53.360;9.736;2022-12-07T11:06:39;3.80;99.90
30648;DHT22;17683;53.360;9.736;2022-12-07T11:17:48;4.00;99.90
30648;DHT22;17683;53.360;9.736;2022-12-07T11:20:53;4.10;99.90
30648;DHT22;17683;53.360;9.736;2022-12-07T11:32:17;4.20;99.90
30648;DHT22;17683;53.360;9.736;2022-12-07T11:34:32;4.20;99.90
30648;DHT22;17683;53.360;9.736;2022-12-07T11:37:01;4.30;99.90
30648;DHT22;17683;53.360;9.736;2022-12-07T11:39:49;4.30;99.90
30648;DHT22;17683;53.360;9.736;2022-12-07T11:42:25;4.30;99.90
30648;DHT22;17683;53.360;9.736;2022-12-07T11:45:16;4.30;99.90
30648;DHT22;17683;53.360;9.736;2022-12-07T11:47:51;4.30;99.90
30648;DHT22;17683;53.360;9.736;2022-12-07T11:50:27;4.30;99.90
30648;DHT22;17683;53.360;9.736;2022-12-07T12:03:42;4.50;99.90
30648;DHT22;17683;53.360;9.736;2022-12-07T12:06:09;4.40;99.90
30648;DHT22;17683;53.360;9.736;2022-12-07T12:25:53;4.50;99.90
30648;DHT22;17683;53.360;9.736;2022-12-07T12:33:35;4.50;99.90
30648;DHT22;17683;53.360;9.736;2022-12-07T12:36:21;4.50;99.90
30648;DHT22;17683;53.360;9.736;2022-12-07T12:51:46;4.60;99.90
30648;DHT22;17683;53.360;9.736;2022-12-07T12:59:58;4.50;99.90
30648;DHT22;17683;53.360;9.736;2022-12-07T13:04:53;4.40;99.90
30648;DHT22;17683;53.360;9.736;2022-12-07T13:15:49;4.40;99.90
30648;DHT22;17683;53.360;9.736;2022-12-07T13:20:54;4.40;99.90
30648;DHT22;17683;53.360;9.736;2022-12-07T13:26:22;4.30;99.90
30648;DHT22;17683;53.360;9.736;2022-12-07T13:31:34;4.30;99.90
30648;DHT22;17683;53.360;9.736;2022-12-07T13:34:01;4.30;99.90
30648;DHT22;17683;53.360;9.736;2022-12-07T13:36:31;4.30;99.90
30648;DHT22;17683;53.360;9.736;2022-12-07T13:41:42;4.30;99.90
30648;DHT22;17683;53.360;9.736;2022-12-07T13:44:16;4.30;99.90
30648;DHT22;17683;53.360;9.736;2022-12-07T13:47:05;4.40;99.90
30648;DHT22;17683;53.360;9.736;2022-12-07T13:49:37;4.40;99.90
30648;DHT22;17683;53.360;9.736;2022-12-07T13:52:23;4.40;99.90
30648;DHT22;17683;53.360;9.736;2022-12-07T13:54:59;4.40;99.90
30648;DHT22;17683;53.360;9.736;2022-12-07T13:57:27;4.40;99.90
30648;DHT22;17683;53.360;9.736;2022-12-07T13:59:54;4.40;99.90
30648;DHT22;17683;53.360;9.736;2022-12-07T14:02:31;4.30;99.90
30648;DHT22;17683;53.360;9.736;2022-12-07T14:05:22;4.30;99.90
30648;DHT22;17683;53.360;9.736;2022-12-07T14:08:02;4.30;99.90
30648;DHT22;17683;53.360;9.736;2022-12-07T14:10:34;4.30;99.90
30648;DHT22;17683;53.360;9.736;2022-12-07T14:13:02;4.30;99.90
30648;DHT22;17683;53.360;9.736;2022-12-07T14:15:33;4.30;99.90
30648;DHT22;17683;53.360;9.736;2022-12-07T14:18:02;4.30;99.90
30648;DHT22;17683;53.360;9.736;2022-12-07T14:20:38;4.20;99.90
30648;DHT22;17683;53.360;9.736;2022-12-07T14:23:20;4.20;99.90
30648;DHT22;17683;53.360;9.736;2022-12-07T14:25:49;4.20;99.90
30648;DHT22;17683;53.360;9.736;2022-12-07T14:28:32;4.20;99.90
30648;DHT22;17683;53.360;9.736;2022-12-07T14:30:59;4.20;99.90
30648;DHT22;17683;53.360;9.736;2022-12-07T14:33:25;4.20;99.90
30648;DHT22;17683;53.360;9.736;2022-12-07T14:35:52;4.20;99.90
30648;DHT22;17683;53.360;9.736;2022-12-07T14:38:21;4.10;99.90
30648;DHT22;17683;53.360;9.736;2022-12-07T14:40:48;4.10;99.90
30648;DHT22;17683;53.360;9.736;2022-12-07T14:43:19;4.10;99.90
30648;DHT22;17683;53.360;9.736;2022-12-07T14:45:45;4.10;99.90
30648;DHT22;17683;53.360;9.736;2022-12-07T14:48:12;4.10;99.90
30648;DHT22;17683;53.360;9.736;2022-12-07T14:50:43;4.00;99.90
30648;DHT22;17683;53.360;9.736;2022-12-07T14:53:14;3.90;99.90
30648;DHT22;17683;53.360;9.736;2022-12-07T14:55:40;3.90;99.90
30648;DHT22;17683;53.360;9.736;2022-12-07T14:58:06;3.80;99.90
30648;DHT22;17683;53.360;9.736;2022-12-07T15:00:32;3.80;99.90
30648;DHT22;17683;53.360;9.736;2022-12-07T15:02:59;3.70;99.90
30648;DHT22;17683;53.360;9.736;2022-12-07T15:05:25;3.70;99.90
30648;DHT22;17683;53.360;9.736;2022-12-07T15:07:51;3.60;99.90
30648;DHT22;17683;53.360;9.736;2022-12-07T15:10:23;3.60;99.90
30648;DHT22;17683;53.360;9.736;2022-12-07T15:12:49;3.60;99.90
30648;DHT22;17683;53.360;9.736;2022-12-07T15:15:15;3.60;99.90
30648;DHT22;17683;53.360;9.736;2022-12-07T15:17:42;3.50;99.90
30648;DHT22;17683;53.360;9.736;2022-12-07T15:20:12;3.50;99.90
30648;DHT22;17683;53.360;9.736;2022-12-07T15:22:38;3.40;99.90
30648;DHT22;17683;53.360;9.736;2022-12-07T15:25:04;3.40;99.90
30648;DHT22;17683;53.360;9.736;2022-12-07T15:27:31;3.40;99.90
30648;DHT22;17683;53.360;9.736;2022-12-07T15:29:57;3.40;99.90
30648;DHT22;17683;53.360;9.736;2022-12-07T15:32:22;3.30;99.90
30648;DHT22;17683;53.360;9.736;2022-12-07T15:34:48;3.30;99.90
30648;DHT22;17683;53.360;9.736;2022-12-07T15:37:15;3.30;99.90
30648;DHT22;17683;53.360;9.736;2022-12-07T15:39:41;3.30;99.90
30648;DHT22;17683;53.360;9.736;2022-12-07T15:42:07;3.30;99.90
30648;DHT22;17683;53.360;9.736;2022-12-07T15:44:33;3.20;99.90
30648;DHT22;17683;53.360;9.736;2022-12-07T15:47:17;3.30;99.90
30648;DHT22;17683;53.360;9.736;2022-12-07T15:49:43;3.20;99.90
30648;DHT22;17683;53.360;9.736;2022-12-07T15:52:09;3.20;99.90
30648;DHT22;17683;53.360;9.736;2022-12-07T15:54:34;3.20;99.90
30648;DHT22;17683;53.360;9.736;2022-12-07T15:57:00;3.20;99.90
30648;DHT22;17683;53.360;9.736;2022-12-07T15:59:27;3.10;99.90
30648;DHT22;17683;53.360;9.736;2022-12-07T16:01:53;3.10;99.90
30648;DHT22;17683;53.360;9.736;2022-12-07T16:04:19;3.10;99.90
30648;DHT22;17683;53.360;9.736;2022-12-07T16:06:45;3.10;99.90
30648;DHT22;17683;53.360;9.736;2022-12-07T16:09:11;3.00;99.90
30648;DHT22;17683;53.360;9.736;2022-12-07T16:11:38;3.00;99.90
30648;DHT22;17683;53.360;9.736;2022-12-07T16:14:03;2.90;99.90
30648;DHT22;17683;53.360;9.736;2022-12-07T16:16:29;3.00;99.90
30648;DHT22;17683;53.360;9.736;2022-12-07T16:19:25;2.90;99.90
30648;DHT22;17683;53.360;9.736;2022-12-07T16:21:53;2.90;99.90
30648;DHT22;17683;53.360;9.736;2022-12-07T16:24:19;3.00;99.90
30648;DHT22;17683;53.360;9.736;2022-12-07T16:26:44;2.90;99.90
30648;DHT22;17683;53.360;9.736;2022-12-07T16:29:14;2.90;99.90
30648;DHT22;17683;53.360;9.736;2022-12-07T16:31:40;2.90;99.90
30648;DHT22;17683;53.360;9.736;2022-12-07T16:34:07;2.90;99.90
30648;DHT22;17683;53.360;9.736;2022-12-07T16:36:33;2.90;99.90
30648;DHT22;17683;53.360;9.736;2022-12-07T16:38:59;2.90;99.90
30648;DHT22;17683;53.360;9.736;2022-12-07T16:41:25;2.90;99.90
30648;DHT22;17683;53.360;9.736;2022-12-07T16:43:51;2.80;99.90
30648;DHT22;17683;53.360;9.736;2022-12-07T16:46:17;2.80;99.90
30648;DHT22;17683;53.360;9.736;2022-12-07T16:48:43;2.80;99.90
30648;DHT22;17683;53.360;9.736;2022-12-07T16:51:11;2.80;99.90
30648;DHT22;17683;53.360;9.736;2022-12-07T16:53:39;2.80;99.90
30648;DHT22;17683;53.360;9.736;2022-12-07T16:56:14;2.70;99.90
30648;DHT22;17683;53.360;9.736;2022-12-07T16:58:43;2.70;99.90
30648;DHT22;17683;53.360;9.736;2022-12-07T17:01:16;2.70;99.90
30648;DHT22;17683;53.360;9.736;2022-12-07T17:03:43;2.60;99.90
30648;DHT22;17683;53.360;9.736;2022-12-07T17:06:16;2.60;99.90
30648;DHT22;17683;53.360;9.736;2022-12-07T17:08:43;2.60;99.90
30648;DHT22;17683;53.360;9.736;2022-12-07T17:11:17;2.50;99.90
30648;DHT22;17683;53.360;9.736;2022-12-07T17:13:43;2.50;99.90
30648;DHT22;17683;53.360;9.736;2022-12-07T17:16:28;2.40;99.90
30648;DHT22;17683;53.360;9.736;2022-12-07T17:18:54;2.40;99.90
30648;DHT22;17683;53.360;9.736;2022-12-07T17:21:20;2.40;99.90
30648;DHT22;17683;53.360;9.736;2022-12-07T17:23:46;2.30;99.90
30648;DHT22;17683;53.360;9.736;2022-12-07T17:26:15;2.30;99.90
30648;DHT22;17683;53.360;9.736;2022-12-07T17:28:41;2.30;99.90
30648;DHT22;17683;53.360;9.736;2022-12-07T17:31:10;2.20;99.90
30648;DHT22;17683;53.360;9.736;2022-12-07T17:33:36;2.20;99.90
30648;DHT22;17683;53.360;9.736;2022-12-07T17:36:10;2.20;99.90
30648;DHT22;17683;53.360;9.736;2022-12-07T17:38:36;2.20;99.90
30648;DHT22;17683;53.360;9.736;2022-12-07T17:41:09;2.10;99.90
30648;DHT22;17683;53.360;9.736;2022-12-07T17:43:34;2.10;99.90
30648;DHT22;17683;53.360;9.736;2022-12-07T17:46:06;2.10;99.90
30648;DHT22;17683;53.360;9.736;2022-12-07T17:48:32;2.10;99.90
30648;DHT22;17683;53.360;9.736;2022-12-07T17:51:02;2.00;99.90
30648;DHT22;17683;53.360;9.736;2022-12-07T17:53:50;2.00;99.90
30648;DHT22;17683;53.360;9.736;2022-12-07T17:56:16;2.00;99.90
30648;DHT22;17683;53.360;9.736;2022-12-07T17:58:42;2.00;99.90
30648;DHT22;17683;53.360;9.736;2022-12-07T18:01:09;1.90;99.90
30648;DHT22;17683;53.360;9.736;2022-12-07T18:03:35;1.90;99.90
30648;DHT22;17683;53.360;9.736;2022-12-07T18:06:01;1.90;99.90
30648;DHT22;17683;53.360;9.736;2022-12-07T18:08:26;1.90;99.90
30648;DHT22;17683;53.360;9.736;2022-12-07T18:10:59;1.80;99.90
30648;DHT22;17683;53.360;9.736;2022-12-07T18:13:25;1.80;99.90
30648;DHT22;17683;53.360;9.736;2022-12-07T18:16:07;1.80;99.90
30648;DHT22;17683;53.360;9.736;2022-12-07T18:18:34;1.70;99.90
30648;DHT22;17683;53.360;9.736;2022-12-07T18:21:06;1.70;99.90
30648;DHT22;17683;53.360;9.736;2022-12-07T18:23:33;1.70;99.90
30648;DHT22;17683;53.360;9.736;2022-12-07T18:25:59;1.70;99.90
30648;DHT22;17683;53.360;9.736;2022-12-07T18:28:26;1.70;99.90
30648;DHT22;17683;53.360;9.736;2022-12-07T18:30:53;1.70;99.90
30648;DHT22;17683;53.360;9.736;2022-12-07T18:33:20;1.70;99.90
30648;DHT22;17683;53.360;9.736;2022-12-07T18:35:46;1.70;99.90